createdAt,value
2022-10-04T00:03:44.079Z,10.77
2022-10-04T00:08:51.800Z,10.81
2022-10-04T00:14:00.294Z,10.75
2022-10-04T00:19:25.722Z,10.76
2022-10-04T00:24:30.814Z,10.87
2022-10-04T00:29:39.199Z,10.89
2022-10-04T00:34:50.460Z,10.60
2022-10-04T00:40:05.846Z,10.79
2022-10-04T00:45:20.791Z,10.53
2022-10-04T00:50:32.010Z,10.31
2022-10-04T00:55:40.934Z,10.51
2022-10-04T01:00:49.869Z,10.45
2022-10-04T01:06:00.430Z,10.53
2022-10-04T01:11:11.362Z,10.62
2022-10-04T01:16:20.506Z,10.67
2022-10-04T01:21:30.545Z,10.68
2022-10-04T01:26:46.777Z,10.85
2022-10-04T01:31:53.070Z,10.90
2022-10-04T01:36:59.163Z,10.80
2022-10-04T01:42:10.875Z,10.66
2022-10-04T01:47:18.290Z,10.73
2022-10-04T01:52:25.674Z,10.69
2022-10-04T01:57:37.655Z,10.70
2022-10-04T02:02:47.418Z,10.55
2022-10-04T02:07:52.482Z,10.53
2022-10-04T02:12:58.220Z,10.30
2022-10-04T02:18:02.838Z,10.25
2022-10-04T02:23:06.461Z,10.34
2022-10-04T02:28:14.917Z,10.40
2022-10-04T02:33:18.333Z,10.40
2022-10-04T02:38:26.180Z,10.31
2022-10-04T02:43:36.919Z,10.29
2022-10-04T02:48:48.766Z,10.16
2022-10-04T02:54:03.189Z,10.10
2022-10-04T02:59:09.758Z,10.11
2022-10-04T03:04:16.029Z,9.95
2022-10-04T03:09:26.139Z,9.82
2022-10-04T03:14:34.705Z,10.09
2022-10-04T03:19:39.541Z,9.97
2022-10-04T03:24:47.121Z,9.93
2022-10-04T03:29:58.227Z,9.96
2022-10-04T03:35:05.859Z,9.99
2022-10-04T03:40:12.355Z,10.16
2022-10-04T03:45:21.145Z,10.00
2022-10-04T03:50:27.734Z,10.07
2022-10-04T03:55:35.862Z,9.91
2022-10-04T04:00:46.789Z,9.98
2022-10-04T04:05:54.868Z,10.01
2022-10-04T04:11:01.473Z,9.94
2022-10-04T04:16:08.125Z,10.11
2022-10-04T04:21:18.860Z,10.14
2022-10-04T04:26:29.099Z,10.43
2022-10-04T04:31:38.836Z,10.33
2022-10-04T04:36:43.837Z,10.47
2022-10-04T04:41:50.597Z,10.64
2022-10-04T04:47:00.560Z,10.90
2022-10-04T04:52:05.480Z,11.11
2022-10-04T04:57:09.664Z,11.55
2022-10-04T05:02:35.224Z,14.03
2022-10-04T05:07:39.490Z,13.11
2022-10-04T05:12:42.858Z,12.45
2022-10-04T05:17:48.677Z,12.37
2022-10-04T05:22:53.075Z,11.67
2022-10-04T05:27:58.148Z,11.65
2022-10-04T05:33:06.739Z,11.21
2022-10-04T05:38:21.534Z,11.42
2022-10-04T05:43:34.471Z,11.71
2022-10-04T05:48:43.362Z,12.10
2022-10-04T05:53:47.181Z,12.07
2022-10-04T05:59:09.351Z,12.21
2022-10-04T06:04:39.087Z,12.27
2022-10-04T06:10:11.206Z,11.98
2022-10-04T06:15:48.769Z,12.04
2022-10-04T06:21:22.054Z,12.08
2022-10-04T06:26:30.045Z,11.99
2022-10-04T06:32:05.333Z,11.96
2022-10-04T06:37:28.645Z,11.64
2022-10-04T06:43:07.361Z,11.94
2022-10-04T06:48:36.755Z,12.08
2022-10-04T06:53:55.899Z,12.05
2022-10-04T06:59:25.342Z,12.10
2022-10-04T07:05:06.417Z,12.04
2022-10-04T07:10:18.405Z,12.46
2022-10-04T07:15:27.194Z,12.62
2022-10-04T07:20:35.750Z,12.76
2022-10-04T07:25:47.619Z,13.11
2022-10-04T07:30:59.243Z,12.96
2022-10-04T07:36:09.630Z,12.93
2022-10-04T07:41:25.126Z,13.03
2022-10-04T07:46:45.355Z,12.88
2022-10-04T07:52:14.409Z,12.66
2022-10-04T07:57:28.930Z,13.01
2022-10-04T08:02:44.680Z,12.76
2022-10-04T08:08:02.965Z,13.84
2022-10-04T08:13:19.632Z,17.14
2022-10-04T08:18:39.966Z,16.07
2022-10-04T08:24:06.630Z,15.61
2022-10-04T08:29:44.812Z,15.41
2022-10-04T08:35:14.028Z,15.05
2022-10-04T08:40:46.430Z,14.55
2022-10-04T08:46:25.424Z,14.53
2022-10-04T08:52:26.056Z,14.30
2022-10-04T08:58:06.772Z,14.12
2022-10-04T09:03:46.727Z,14.39
2022-10-04T09:09:40.349Z,14.13
2022-10-04T09:15:33.033Z,14.53
2022-10-04T09:20:55.064Z,14.82
2022-10-04T09:26:12.047Z,14.35
2022-10-04T09:31:43.360Z,13.37
2022-10-04T09:37:13.804Z,14.05
2022-10-04T09:42:43.823Z,14.06
2022-10-04T09:48:02.423Z,13.72
2022-10-04T09:53:21.766Z,13.60
2022-10-04T09:58:43.481Z,13.45
2022-10-04T10:04:11.803Z,13.39
2022-10-04T10:09:48.547Z,13.32
2022-10-04T10:15:11.740Z,13.11
2022-10-04T10:20:45.167Z,12.94
2022-10-04T10:26:03.177Z,12.25
2022-10-04T10:31:32.227Z,12.18
2022-10-04T10:37:05.824Z,11.97
2022-10-04T10:42:27.425Z,11.08
2022-10-04T10:47:44.632Z,10.55
2022-10-04T10:53:30.399Z,10.56
2022-10-04T10:59:06.838Z,10.45
2022-10-04T11:04:45.141Z,10.47
2022-10-04T11:10:16.099Z,10.30
2022-10-04T11:15:52.519Z,10.14
2022-10-04T11:21:29.455Z,10.18
2022-10-04T11:27:02.795Z,10.56
2022-10-04T11:32:52.055Z,10.82
2022-10-04T11:38:07.923Z,10.77
2022-10-04T11:43:32.029Z,10.88
2022-10-04T11:48:48.410Z,10.89
2022-10-04T11:54:28.736Z,10.71
2022-10-04T11:59:53.037Z,10.58
2022-10-04T12:05:31.187Z,10.50
2022-10-04T12:10:39.734Z,10.21
2022-10-04T12:15:58.373Z,10.09
2022-10-04T12:21:29.871Z,9.92
2022-10-04T12:27:01.308Z,10.25
2022-10-04T12:32:11.466Z,10.25
2022-10-04T12:37:28.319Z,10.31
2022-10-04T12:42:45.927Z,10.30
2022-10-04T12:48:06.337Z,10.17
2022-10-04T12:53:20.231Z,10.36
2022-10-04T12:58:31.064Z,10.54
2022-10-04T13:04:00.532Z,10.46
2022-10-04T13:09:17.705Z,10.12
2022-10-04T13:14:49.353Z,10.02
2022-10-04T13:20:04.963Z,9.98
2022-10-04T13:25:47.778Z,9.94
2022-10-04T13:31:02.212Z,10.00
2022-10-04T13:36:11.697Z,10.00
2022-10-04T13:41:28.406Z,10.12
2022-10-04T13:46:44.890Z,9.86
2022-10-04T13:52:25.079Z,9.70
2022-10-04T13:57:39.650Z,9.83
2022-10-04T14:03:16.877Z,9.56
2022-10-04T14:08:58.670Z,9.58
2022-10-04T14:14:36.931Z,9.55
2022-10-04T14:20:19.872Z,9.60
2022-10-04T14:25:59.816Z,9.42
2022-10-04T14:31:38.810Z,9.46
2022-10-04T14:37:11.601Z,9.43
2022-10-04T14:42:48.353Z,9.39
2022-10-04T14:48:30.432Z,9.42
2022-10-04T14:53:41.395Z,9.45
2022-10-04T14:59:01.211Z,9.58
2022-10-04T15:04:22.609Z,9.49
2022-10-04T15:09:52.642Z,9.44
2022-10-04T15:15:37.406Z,9.30
2022-10-04T15:20:56.254Z,9.27
2022-10-04T15:26:07.527Z,9.30
2022-10-04T15:31:20.922Z,9.30
2022-10-04T15:36:48.696Z,9.24
2022-10-04T15:41:57.750Z,9.19
2022-10-04T15:47:17.373Z,9.17
2022-10-04T15:52:46.270Z,9.07
2022-10-04T15:58:17.516Z,9.07
2022-10-04T16:03:33.608Z,8.93
2022-10-04T16:08:56.581Z,8.90
2022-10-04T16:14:44.383Z,8.73
2022-10-04T16:20:06.844Z,8.81
2022-10-04T16:25:40.772Z,8.86
2022-10-04T16:30:51.008Z,8.84
2022-10-04T16:36:11.804Z,8.87
2022-10-04T16:41:34.840Z,8.84
2022-10-04T16:46:47.346Z,8.82
2022-10-04T16:52:16.520Z,8.83
2022-10-04T16:57:25.895Z,8.97
2022-10-04T17:03:08.161Z,8.95
2022-10-04T17:08:28.837Z,8.95
2022-10-04T17:13:51.739Z,9.04
2022-10-04T17:19:20.702Z,9.02
2022-10-04T17:24:36.335Z,9.16
2022-10-04T17:29:58.778Z,9.13
2022-10-04T17:35:25.445Z,9.05
2022-10-04T17:40:43.407Z,9.08
2022-10-04T17:46:16.289Z,9.09
2022-10-04T17:51:57.900Z,9.10
2022-10-04T17:57:27.457Z,9.13
2022-10-04T18:03:01.355Z,9.30
2022-10-04T18:08:14.879Z,9.25
2022-10-04T18:13:32.231Z,9.13
2022-10-04T18:18:42.388Z,9.30
2022-10-04T18:23:55.254Z,9.13
2022-10-04T18:29:02.170Z,9.19
2022-10-04T18:34:30.203Z,9.22
2022-10-04T18:39:50.558Z,9.22
2022-10-04T18:45:00.279Z,8.98
2022-10-04T18:50:17.246Z,8.83
2022-10-04T18:55:32.881Z,8.77
2022-10-04T19:01:01.352Z,8.66
2022-10-04T19:06:17.644Z,8.64
2022-10-04T19:11:26.555Z,8.71
2022-10-04T19:16:43.195Z,8.59
2022-10-04T19:21:56.876Z,8.56
2022-10-04T19:27:05.824Z,8.47
2022-10-04T19:32:15.299Z,8.16
2022-10-04T19:37:32.071Z,8.03
2022-10-04T19:42:46.944Z,8.21
2022-10-04T19:47:53.090Z,8.09
2022-10-04T19:53:01.064Z,8.15
2022-10-04T19:58:22.993Z,8.18
2022-10-04T20:03:27.068Z,8.28
2022-10-04T20:09:00.896Z,8.44
2022-10-04T20:14:54.680Z,8.42
2022-10-04T20:19:59.794Z,8.35
2022-10-04T20:25:05.041Z,8.39
2022-10-04T20:30:14.610Z,8.54
2022-10-04T20:36:10.213Z,8.45
2022-10-04T20:42:22.685Z,8.52
2022-10-04T20:47:40.097Z,8.40
2022-10-04T20:52:48.610Z,8.44
2022-10-04T20:57:54.188Z,8.48
2022-10-04T21:03:25.274Z,8.54
2022-10-04T21:08:30.447Z,8.50
2022-10-04T21:13:54.998Z,8.44
2022-10-04T21:19:46.117Z,8.50
2022-10-04T21:24:56.100Z,8.48
2022-10-04T21:30:03.011Z,8.54
2022-10-04T21:35:09.532Z,8.60
2022-10-04T21:40:15.586Z,8.57
2022-10-04T21:45:21.006Z,8.62
2022-10-04T21:50:25.056Z,8.62
2022-10-04T21:55:29.127Z,8.60
2022-10-04T22:00:35.035Z,8.63
2022-10-04T22:05:39.066Z,8.52
2022-10-04T22:10:44.251Z,8.48
2022-10-04T22:15:49.646Z,8.32
2022-10-04T22:20:54.058Z,8.28
2022-10-04T22:25:58.173Z,8.25
2022-10-04T22:31:03.535Z,8.32
2022-10-04T22:36:15.373Z,8.20
2022-10-04T22:41:21.105Z,8.24
2022-10-04T22:46:30.186Z,8.30
2022-10-04T22:51:34.455Z,8.17
2022-10-04T22:56:38.534Z,8.20
2022-10-04T23:01:44.585Z,8.28
2022-10-04T23:06:48.950Z,8.21
2022-10-04T23:11:53.234Z,8.12
2022-10-04T23:16:58.656Z,8.10
2022-10-04T23:22:02.696Z,8.05
2022-10-04T23:27:17.750Z,8.07
2022-10-04T23:32:22.157Z,8.00
2022-10-04T23:37:28.602Z,8.06
2022-10-04T23:42:36.891Z,8.12
2022-10-04T23:47:42.330Z,8.22
2022-10-04T23:52:46.657Z,8.26
2022-10-04T23:57:51.267Z,8.27
